Time;durP1;ratioP1;P1;durP2;ratioP2;P2;SDS_P1;SDS_P2;PMS_P1;PMS_P2;Temp;Humidity;BMP_temperature;BMP_pressure;BME280_temperature;BME280_humidity;BME280_pressure;Samples;Min_cycle;Max_cycle;Signal;HPM_P1;HPM_P2
2022/03/18 00:01:36;;;;;;;22.20;11.80;;;;;;;2.21;44.71;102439.95;130330;1268;98664;-74
2022/03/18 00:04:42;;;;;;;20.40;11.50;;;;;;;2.20;44.79;102438.08;130280;1268;99144;-74
2022/03/18 00:07:48;;;;;;;22.70;11.70;;;;;;;2.16;44.72;102441.34;130284;1268;97977;-76
2022/03/18 00:10:55;;;;;;;18.10;11.30;;;;;;;2.17;44.79;102441.14;130360;1268;98052;-76
2022/03/18 00:14:02;;;;;;;23.80;12.30;;;;;;;2.15;44.88;102445.39;131043;1268;98067;-75
2022/03/18 00:17:08;;;;;;;22.20;11.00;;;;;;;2.11;44.80;102446.61;130297;1268;97999;-75
2022/03/18 00:20:15;;;;;;;22.50;12.00;;;;;;;2.09;44.95;102448.91;130308;1268;97982;-73
2022/03/18 00:23:21;;;;;;;25.00;12.20;;;;;;;2.07;44.88;102454.27;130375;1268;98666;-73
2022/03/18 00:26:26;;;;;;;18.50;10.70;;;;;;;2.02;44.90;102456.31;130330;1268;99075;-73
2022/03/18 00:29:32;;;;;;;21.30;11.30;;;;;;;2.01;44.99;102456.19;130275;1268;97954;-73
2022/03/18 00:32:40;;;;;;;22.20;11.80;;;;;;;2.00;44.87;102455.33;130300;1268;97967;-76
2022/03/18 00:35:45;;;;;;;21.40;11.50;;;;;;;1.96;44.91;102452.80;130347;1268;98084;-76
2022/03/18 00:38:51;;;;;;;19.50;11.10;;;;;;;1.93;45.14;102455.15;130408;1268;99096;-76
2022/03/18 00:41:57;;;;;;;21.00;11.30;;;;;;;1.92;45.00;102449.92;130365;1268;98020;-76
2022/03/18 00:45:04;;;;;;;21.60;11.50;;;;;;;1.91;45.07;102454.86;130352;1268;98004;-76
2022/03/18 00:54:57;;;;;;;19.90;10.80;;;;;;;1.83;45.07;102460.88;130343;1268;98037;-75
2022/03/18 00:58:02;;;;;;;20.40;10.70;;;;;;;1.80;45.15;102460.29;130364;1268;97996;-75
2022/03/18 01:01:08;;;;;;;18.70;10.80;;;;;;;1.76;45.16;102461.77;130342;1268;99098;-75
2022/03/18 01:04:13;;;;;;;20.40;11.20;;;;;;;1.73;45.28;102461.15;130354;1268;98066;-76
2022/03/18 01:07:19;;;;;;;18.50;11.10;;;;;;;1.69;45.19;102462.48;130432;1268;97995;-75
2022/03/18 01:10:24;;;;;;;20.00;11.00;;;;;;;1.67;45.34;102461.85;130353;1268;99047;-76
2022/03/18 01:13:30;;;;;;;18.70;10.70;;;;;;;1.64;45.34;102458.80;130544;1268;97992;-77
2022/03/18 01:16:36;;;;;;;20.80;10.90;;;;;;;1.61;45.37;102458.50;130450;1268;97986;-76
2022/03/18 01:19:41;;;;;;;18.10;10.90;;;;;;;1.61;45.42;102454.66;130416;1268;97990;-76
2022/03/18 01:22:47;;;;;;;21.80;11.60;;;;;;;1.56;45.44;102457.58;130361;1268;99215;-75
2022/03/18 01:25:54;;;;;;;19.10;11.10;;;;;;;1.51;45.42;102459.10;130360;1268;98781;-76
2022/03/18 01:29:00;;;;;;;18.70;10.60;;;;;;;1.48;45.55;102459.20;130373;1268;97974;-77
2022/03/18 01:32:06;;;;;;;18.50;10.60;;;;;;;1.46;45.58;102454.70;130308;1268;98062;-76
2022/03/18 01:35:12;;;;;;;19.90;11.00;;;;;;;1.43;45.75;102454.59;130336;1268;99175;-74
2022/03/18 01:38:18;;;;;;;19.60;11.20;;;;;;;1.41;45.65;102457.79;130363;1268;98224;-75
2022/03/18 01:41:23;;;;;;;20.50;11.30;;;;;;;1.38;45.73;102460.15;130365;1268;99190;-75
2022/03/18 01:44:29;;;;;;;20.00;11.20;;;;;;;1.37;45.74;102462.46;130379;1268;98075;-74
2022/03/18 01:47:34;;;;;;;21.90;11.10;;;;;;;1.35;45.73;102463.21;130299;1268;98630;-75
2022/03/18 01:50:41;;;;;;;19.60;11.60;;;;;;;1.33;45.83;102465.02;130316;1268;98064;-75
2022/03/18 01:54:43;;;;;;;21.30;11.30;;;;;;;1.32;45.95;102470.84;130315;1268;97967;-74
2022/03/18 01:57:14;;;;;;;18.60;10.90;;;;;;;1.28;45.79;102471.45;130366;1268;98021;-76
2022/03/18 02:00:21;;;;;;;21.10;11.50;;;;;;;1.25;45.96;102473.30;130396;1268;98062;-74
2022/03/18 02:03:27;;;;;;;17.60;11.10;;;;;;;1.20;45.93;102479.90;130382;1268;97976;-75
2022/03/18 02:06:33;;;;;;;19.90;10.90;;;;;;;1.20;45.92;102475.16;130322;1268;98017;-75
2022/03/18 02:09:40;;;;;;;21.60;12.00;;;;;;;1.20;45.99;102475.00;130375;1268;98102;-76
2022/03/18 02:12:46;;;;;;;20.70;11.90;;;;;;;1.15;45.94;102477.02;130403;1268;98009;-75
2022/03/18 02:15:52;;;;;;;18.80;10.60;;;;;;;1.11;46.06;102474.86;130292;1268;99149;-73
2022/03/18 02:18:57;;;;;;;18.90;11.20;;;;;;;1.11;46.15;102473.10;130308;1268;99242;-74
2022/03/18 02:22:10;;;;;;;21.30;11.00;;;;;;;1.10;46.19;102471.90;130339;1268;98024;-74
2022/03/18 02:25:16;;;;;;;19.50;11.10;;;;;;;1.07;46.23;102472.33;130365;1268;98703;-73
2022/03/18 02:28:21;;;;;;;19.80;11.00;;;;;;;1.05;46.18;102478.84;130304;1268;99227;-74
2022/03/18 02:31:30;;;;;;;19.80;10.60;;;;;;;1.04;46.26;102487.30;130368;1268;99138;-74
2022/03/18 02:34:37;;;;;;;18.30;10.90;;;;;;;1.03;46.34;102493.80;130380;1268;98156;-74
2022/03/18 02:37:43;;;;;;;20.80;11.60;;;;;;;1.04;46.20;102493.79;130369;1268;97962;-74
2022/03/18 02:40:48;;;;;;;18.00;10.40;;;;;;;1.00;46.40;102498.42;130335;1268;98017;-74
2022/03/18 02:43:53;;;;;;;18.50;10.40;;;;;;;0.99;46.27;102506.34;130344;1268;99041;-74
2022/03/18 02:46:59;;;;;;;20.10;10.80;;;;;;;1.00;46.40;102507.19;130344;1268;97975;-73
2022/03/18 02:50:07;;;;;;;19.70;11.00;;;;;;;0.98;46.52;102506.89;130303;1268;98065;-74
2022/03/18 02:53:12;;;;;;;20.40;10.40;;;;;;;0.96;46.48;102511.67;130302;1268;99175;-72
2022/03/18 02:56:18;;;;;;;17.80;10.40;;;;;;;0.93;46.46;102511.73;130313;1268;99013;-73
2022/03/18 02:59:23;;;;;;;19.30;10.30;;;;;;;0.92;46.59;102513.00;130308;1268;98612;-74
2022/03/18 03:02:29;;;;;;;19.00;10.50;;;;;;;0.91;46.52;102516.88;130277;1268;98015;-74
2022/03/18 03:08:57;;;;;;;19.00;11.30;;;;;;;0.86;46.62;102524.16;130298;1268;99170;-73
2022/03/18 03:12:03;;;;;;;18.70;10.70;;;;;;;0.84;46.67;102524.20;130255;1268;98736;-74
2022/03/18 03:15:10;;;;;;;19.70;10.70;;;;;;;0.83;46.82;102521.45;130301;1267;98757;-74
2022/03/18 03:18:15;;;;;;;18.20;10.20;;;;;;;0.79;46.70;102523.45;130351;1268;98637;-75
2022/03/18 03:21:21;;;;;;;18.30;10.80;;;;;;;0.76;46.90;102521.23;130292;1268;98011;-76
2022/03/18 03:24:28;;;;;;;17.90;10.50;;;;;;;0.76;46.77;102524.73;130321;1268;98563;-76
2022/03/18 03:27:33;;;;;;;21.30;11.40;;;;;;;0.76;46.80;102526.13;130333;1268;97982;-76
2022/03/18 03:30:39;;;;;;;19.10;10.60;;;;;;;0.75;46.99;102530.55;130296;1268;98452;-75
2022/03/18 03:33:45;;;;;;;18.40;11.30;;;;;;;0.73;46.81;102532.69;130291;1268;99153;-76
2022/03/18 03:36:50;;;;;;;19.40;10.50;;;;;;;0.71;47.11;102539.20;130349;1268;99152;-76
2022/03/18 03:39:56;;;;;;;23.60;11.30;;;;;;;0.68;46.93;102543.99;130343;1268;97993;-76
2022/03/18 03:43:01;;;;;;;21.00;11.10;;;;;;;0.66;47.01;102548.97;130337;1268;98787;-76
2022/03/18 03:46:07;;;;;;;19.60;10.60;;;;;;;0.63;46.93;102554.98;130423;1268;98090;-77
2022/03/18 03:49:13;;;;;;;18.00;10.90;;;;;;;0.62;47.12;102550.63;130277;1268;98046;-74
2022/03/18 03:52:19;;;;;;;19.50;10.50;;;;;;;0.61;47.25;102558.34;130320;1268;98014;-75
2022/03/18 03:55:25;;;;;;;17.20;10.80;;;;;;;0.59;47.07;102561.38;130325;1268;98066;-76
2022/03/18 03:58:30;;;;;;;21.40;10.90;;;;;;;0.57;47.20;102568.06;130294;1268;98098;-75
2022/03/18 04:01:36;;;;;;;22.60;11.20;;;;;;;0.56;47.12;102570.71;130300;1268;98587;-73
2022/03/18 04:04:41;;;;;;;19.70;11.30;;;;;;;0.54;47.24;102564.44;130293;1268;98065;-74
2022/03/18 04:07:46;;;;;;;21.20;10.90;;;;;;;0.52;47.39;102564.13;130346;1268;99182;-76
2022/03/18 04:10:52;;;;;;;19.10;11.20;;;;;;;0.50;47.34;102563.98;130302;1268;98065;-74
2022/03/18 04:13:58;;;;;;;21.70;12.10;;;;;;;0.47;47.43;102570.71;130395;1268;97992;-76
2022/03/18 04:17:03;;;;;;;23.70;13.40;;;;;;;0.49;47.52;102571.90;130338;1268;98060;-76
2022/03/18 04:20:12;;;;;;;28.00;14.30;;;;;;;0.49;47.50;102576.46;130521;1268;99178;-75
2022/03/18 04:23:17;;;;;;;33.10;15.80;;;;;;;0.47;47.51;102580.86;130483;1268;98535;-76
2022/03/18 04:26:23;;;;;;;30.40;16.30;;;;;;;0.44;47.63;102588.27;130487;1267;97999;-76
2022/03/18 04:29:31;;;;;;;29.60;15.20;;;;;;;0.45;47.64;102588.95;130399;1268;97978;-75
2022/03/18 04:32:37;;;;;;;28.20;14.60;;;;;;;0.43;47.51;102587.08;130333;1268;97966;-73
2022/03/18 04:35:42;;;;;;;31.30;16.10;;;;;;;0.44;47.80;102593.01;130376;1268;98095;-74
2022/03/18 04:38:48;;;;;;;28.10;14.80;;;;;;;0.46;47.83;102595.42;130330;1268;98772;-74
2022/03/18 04:41:53;;;;;;;31.80;15.30;;;;;;;0.47;47.80;102597.50;130370;1268;98386;-75
2022/03/18 04:44:59;;;;;;;29.00;16.30;;;;;;;0.47;47.84;102603.98;130328;1268;97992;-74
2022/03/18 04:48:05;;;;;;;29.30;16.10;;;;;;;0.49;47.82;102603.79;130270;1268;99171;-75
2022/03/18 04:51:10;;;;;;;27.50;15.40;;;;;;;0.49;47.77;102609.20;130314;1268;97997;-74
2022/03/18 04:54:16;;;;;;;30.30;17.00;;;;;;;0.50;48.02;102611.80;130304;1268;99060;-74
2022/03/18 04:57:21;;;;;;;47.70;23.40;;;;;;;0.52;48.09;102619.30;130457;1268;98760;-75
2022/03/18 05:00:28;;;;;;;51.10;24.10;;;;;;;0.53;47.95;102623.30;130335;1268;98064;-75
2022/03/18 05:03:34;;;;;;;43.50;19.60;;;;;;;0.56;47.94;102626.92;130325;1268;98672;-74
2022/03/18 05:06:40;;;;;;;37.90;18.20;;;;;;;0.58;48.07;102628.80;130323;1268;97982;-73
2022/03/18 05:09:47;;;;;;;46.30;19.70;;;;;;;0.64;47.98;102633.08;130338;1268;97940;-74
2022/03/18 05:12:53;;;;;;;52.10;23.00;;;;;;;0.74;48.09;102633.92;130454;1267;97997;-74
2022/03/18 05:15:58;;;;;;;38.60;17.80;;;;;;;0.83;48.10;102638.30;130298;1267;98085;-75
2022/03/18 05:19:03;;;;;;;65.90;22.70;;;;;;;0.93;47.99;102643.53;130642;1268;98092;-75
2022/03/18 05:22:09;;;;;;;56.70;19.40;;;;;;;1.02;47.86;102645.44;130335;1268;97966;-76
2022/03/18 05:25:15;;;;;;;38.50;16.70;;;;;;;1.10;47.99;102641.93;130351;1268;97974;-77
2022/03/18 05:28:21;;;;;;;31.30;13.30;;;;;;;1.17;48.03;102641.43;130340;1268;98057;-77
2022/03/18 05:31:27;;;;;;;23.40;12.60;;;;;;;1.20;47.99;102645.38;130362;1268;98060;-74
2022/03/18 05:34:33;;;;;;;29.10;13.10;;;;;;;1.27;48.15;102649.10;130331;1268;98063;-72
2022/03/18 05:37:38;;;;;;;22.90;12.70;;;;;;;1.34;48.07;102657.88;130336;1268;97959;-71
2022/03/18 05:40:45;;;;;;;21.30;12.00;;;;;;;1.40;47.93;102660.02;130556;1268;98086;-72
2022/03/18 05:43:50;;;;;;;25.00;12.80;;;;;;;1.46;47.99;102658.48;130482;1268;97998;-72
2022/03/18 05:46:56;;;;;;;23.30;11.80;;;;;;;1.52;47.92;102661.67;130208;1268;98780;-72
2022/03/18 05:50:06;;;;;;;23.80;12.50;;;;;;;1.61;47.76;102662.52;130427;1268;97980;-73
2022/03/18 05:53:12;;;;;;;22.70;12.40;;;;;;;1.70;47.66;102671.98;130397;1268;99337;-73
2022/03/18 05:59:41;;;;;;;24.80;12.20;;;;;;;1.77;47.59;102672.33;130284;1268;98553;-74
2022/03/18 06:02:47;;;;;;;20.00;11.60;;;;;;;1.80;47.66;102677.19;130385;1268;97986;-75
2022/03/18 06:05:52;;;;;;;20.00;11.40;;;;;;;1.82;47.63;102680.98;130418;1268;99181;-75
2022/03/18 06:12:23;;;;;;;19.00;11.30;;;;;;;1.92;47.57;102689.34;130404;1268;99174;-76
2022/03/18 06:15:28;;;;;;;19.20;11.20;;;;;;;1.97;47.50;102693.62;130457;1267;98767;-75
2022/03/18 06:18:36;;;;;;;20.60;12.00;;;;;;;2.04;47.48;102697.31;130492;1268;97996;-77
2022/03/18 06:21:42;;;;;;;21.80;11.90;;;;;;;2.09;47.48;102699.48;130379;1268;98001;-77
2022/03/18 06:24:48;;;;;;;20.50;11.70;;;;;;;2.12;47.29;102700.09;130271;1268;98330;-72
2022/03/18 06:27:53;;;;;;;19.60;11.10;;;;;;;2.15;47.33;102706.35;130363;1268;97988;-76
2022/03/18 06:30:58;;;;;;;20.40;10.90;;;;;;;2.19;47.27;102708.51;130340;1268;99177;-78
2022/03/18 06:34:04;;;;;;;19.10;10.30;;;;;;;2.25;47.18;102712.23;130405;1267;97993;-76
2022/03/18 06:37:10;;;;;;;20.30;12.00;;;;;;;2.24;47.18;102708.73;130708;1266;98053;-75
2022/03/18 06:40:16;;;;;;;23.10;11.80;;;;;;;2.27;47.02;102715.01;130524;1267;97976;-76
2022/03/18 06:43:21;;;;;;;19.40;12.10;;;;;;;2.32;47.05;102712.38;130491;1267;98058;-76
2022/03/18 06:46:28;;;;;;;19.90;11.60;;;;;;;2.37;46.80;102714.40;130446;1268;99165;-78
2022/03/18 06:49:33;;;;;;;19.60;11.60;;;;;;;2.42;46.58;102716.04;130594;1266;99047;-77
2022/03/18 06:52:39;;;;;;;18.90;10.70;;;;;;;2.42;46.18;102714.63;130361;1267;97996;-79
2022/03/18 06:55:44;;;;;;;21.20;11.20;;;;;;;2.42;46.31;102720.42;130475;1267;99181;-76
2022/03/18 06:58:50;;;;;;;17.20;9.70;;;;;;;2.46;46.46;102722.77;130527;1267;98024;-76
2022/03/18 07:01:55;;;;;;;15.70;10.00;;;;;;;2.49;46.21;102727.94;130460;1267;97985;-76
2022/03/18 07:05:02;;;;;;;18.80;10.70;;;;;;;2.54;46.12;102728.34;130431;1267;97975;-75
2022/03/18 07:08:07;;;;;;;18.00;10.80;;;;;;;2.59;46.12;102724.02;130481;1267;97982;-74
2022/03/18 07:11:13;;;;;;;19.00;9.90;;;;;;;2.62;45.86;102724.11;130461;1266;98051;-76
2022/03/18 07:14:19;;;;;;;16.80;9.50;;;;;;;2.65;45.87;102719.98;130397;1267;99016;-77
2022/03/18 07:20:47;;;;;;;17.90;8.80;;;;;;;2.74;45.58;102722.89;130467;1267;98087;-76
2022/03/18 07:23:52;;;;;;;13.80;8.50;;;;;;;2.81;45.62;102725.70;130425;1267;97976;-76
2022/03/18 07:26:58;;;;;;;12.90;8.20;;;;;;;2.90;45.29;102729.51;130455;1266;99155;-79
2022/03/18 07:30:04;;;;;;;13.40;7.90;;;;;;;2.99;45.28;102727.50;130476;1267;99163;-75
2022/03/18 07:33:10;;;;;;;13.50;8.00;;;;;;;3.06;45.22;102730.09;130525;1267;99038;-76
2022/03/18 07:36:15;;;;;;;40.80;23.80;;;;;;;3.16;44.86;102734.22;130489;1267;99171;-77
2022/03/18 07:39:20;;;;;;;14.20;7.30;;;;;;;3.23;44.70;102743.86;130404;1267;99034;-78
2022/03/18 07:42:26;;;;;;;23.50;7.30;;;;;;;3.28;44.66;102743.89;130421;1267;98058;-77
2022/03/18 07:45:33;;;;;;;11.40;6.50;;;;;;;3.32;43.93;102747.45;130449;1267;99073;-78
2022/03/18 07:48:40;;;;;;;9.30;5.90;;;;;;;3.38;44.36;102748.88;130411;1267;97965;-73
2022/03/18 07:51:45;;;;;;;10.60;6.80;;;;;;;3.46;43.97;102754.63;130446;1267;98110;-73
2022/03/18 07:54:51;;;;;;;11.30;6.50;;;;;;;3.54;43.45;102754.58;130445;1267;97977;-74
2022/03/18 07:57:58;;;;;;;11.20;6.70;;;;;;;3.57;42.99;102760.11;130494;1267;97980;-75
2022/03/18 08:01:06;;;;;;;13.40;6.50;;;;;;;3.60;42.50;102755.10;130410;1267;97971;-74
2022/03/18 08:04:13;;;;;;;11.30;6.60;;;;;;;3.60;42.67;102757.02;130433;1267;97990;-74
2022/03/18 08:07:19;;;;;;;12.60;7.20;;;;;;;3.62;42.66;102752.39;130500;1266;97988;-76
2022/03/18 08:10:25;;;;;;;10.80;6.80;;;;;;;3.67;42.66;102749.08;130646;1266;97971;-77
2022/03/18 08:13:30;;;;;;;11.40;7.20;;;;;;;3.71;42.71;102751.23;130547;1266;99168;-73
2022/03/18 08:16:36;;;;;;;12.90;7.20;;;;;;;3.76;42.59;102755.48;130425;1267;97965;-72
2022/03/18 08:19:41;;;;;;;11.60;6.90;;;;;;;3.81;41.93;102757.27;130432;1267;98020;-76
2022/03/18 08:22:47;;;;;;;10.40;6.40;;;;;;;3.87;42.31;102762.36;130383;1267;98025;-73
2022/03/18 08:25:53;;;;;;;11.50;7.00;;;;;;;3.94;42.31;102765.66;130380;1266;98057;-72
2022/03/18 08:28:58;;;;;;;9.90;6.30;;;;;;;4.03;42.31;102761.14;130496;1267;98027;-71
2022/03/18 08:32:04;;;;;;;9.70;6.60;;;;;;;4.11;42.56;102764.06;130369;1268;98093;-73
2022/03/18 08:35:10;;;;;;;11.10;6.80;;;;;;;4.18;42.19;102755.90;130310;1268;98790;-73
2022/03/18 08:38:15;;;;;;;13.50;7.20;;;;;;;4.27;42.26;102758.27;130336;1268;99019;-72
2022/03/18 08:41:21;;;;;;;10.00;6.30;;;;;;;4.37;42.30;102755.46;130296;1268;99220;-74
2022/03/18 08:44:27;;;;;;;13.70;7.70;;;;;;;4.48;42.09;102761.27;130291;1268;97993;-73
2022/03/18 08:47:33;;;;;;;17.40;9.30;;;;;;;4.57;42.35;102760.06;130315;1268;98057;-74
2022/03/18 08:50:38;;;;;;;14.00;7.70;;;;;;;4.67;42.06;102755.83;130234;1268;98111;-73
2022/03/18 08:53:44;;;;;;;13.60;8.40;;;;;;;4.76;41.68;102754.14;130319;1268;97973;-74
2022/03/18 08:56:49;;;;;;;16.50;9.10;;;;;;;4.80;41.49;102755.39;130328;1270;97980;-74
2022/03/18 08:59:55;;;;;;;10.20;6.40;;;;;;;4.85;41.01;102756.64;130360;1268;98626;-75
2022/03/18 09:03:00;;;;;;;11.90;7.90;;;;;;;4.90;41.02;102756.09;130418;1268;99044;-74
2022/03/18 09:06:07;;;;;;;11.50;7.80;;;;;;;4.93;40.83;102760.58;130421;1267;99144;-73
2022/03/18 09:09:12;;;;;;;13.20;8.30;;;;;;;4.95;41.08;102759.99;130455;1266;99201;-73
2022/03/18 09:12:20;;;;;;;13.30;8.60;;;;;;;5.00;40.83;102764.58;130528;1266;98170;-72
2022/03/18 09:15:26;;;;;;;12.30;8.00;;;;;;;5.04;40.64;102772.91;130534;1267;97968;-73
2022/03/18 09:18:31;;;;;;;14.70;8.40;;;;;;;5.05;40.50;102767.02;130486;1267;98105;-73
2022/03/18 09:21:36;;;;;;;10.70;7.80;;;;;;;5.06;40.57;102769.99;130410;1266;98039;-73
2022/03/18 09:24:43;;;;;;;12.30;8.80;;;;;;;5.09;40.25;102774.64;130624;1267;97988;-73
2022/03/18 09:27:48;;;;;;;11.70;7.30;;;;;;;5.14;40.61;102774.83;130483;1267;97964;-72
2022/03/18 09:30:54;;;;;;;10.00;7.20;;;;;;;5.19;40.46;102767.41;130374;1269;99278;-71
2022/03/18 09:34:00;;;;;;;14.90;8.40;;;;;;;5.26;40.30;102771.93;130435;1268;98669;-74
2022/03/18 09:37:06;;;;;;;27.50;14.20;;;;;;;5.33;40.80;102774.30;130300;1268;99167;-73
2022/03/18 09:40:12;;;;;;;20.60;11.00;;;;;;;5.39;40.34;102770.74;130485;1268;98283;-72
2022/03/18 09:43:17;;;;;;;15.70;9.10;;;;;;;5.39;40.35;102773.91;130307;1270;98559;-72
2022/03/18 09:46:23;;;;;;;15.90;8.80;;;;;;;5.41;40.23;102772.40;130352;1269;98066;-73
2022/03/18 09:49:29;;;;;;;17.20;10.50;;;;;;;5.43;40.25;102773.91;130268;1268;97976;-75
2022/03/18 09:52:34;;;;;;;15.30;9.20;;;;;;;5.48;40.18;102776.56;130359;1267;97982;-73
2022/03/18 09:55:41;;;;;;;12.40;7.80;;;;;;;5.53;40.39;102771.45;130313;1268;97967;-73
2022/03/18 09:58:46;;;;;;;25.20;13.50;;;;;;;5.60;39.92;102774.70;130357;1268;98721;-72
2022/03/18 10:02:11;;;;;;;12.40;7.80;;;;;;;5.65;39.20;102782.65;130172;1268;97987;-75
2022/03/18 10:05:18;;;;;;;10.40;7.20;;;;;;;5.71;39.39;102782.77;130519;1268;97986;-75
2022/03/18 10:08:25;;;;;;;8.60;6.40;;;;;;;5.77;39.21;102780.05;130410;1268;99182;-75
2022/03/18 10:11:32;;;;;;;11.90;7.00;;;;;;;5.83;39.29;102781.59;130240;1268;98646;-74
2022/03/18 10:14:37;;;;;;;10.40;7.10;;;;;;;5.90;39.55;102783.25;130315;1268;99261;-74
2022/03/18 10:17:53;;;;;;;9.80;6.60;;;;;;;5.98;39.54;102791.09;130316;1268;97969;-73
2022/03/18 10:21:08;;;;;;;10.60;7.00;;;;;;;6.04;39.38;102789.62;130270;1269;98080;-73
2022/03/18 10:24:14;;;;;;;31.80;16.50;;;;;;;6.10;38.85;102798.73;130457;1268;97956;-70
2022/03/18 10:27:21;;;;;;;19.70;11.80;;;;;;;6.15;38.21;102802.44;130010;1268;98112;-70
2022/03/18 10:30:27;;;;;;;12.40;7.80;;;;;;;6.16;38.65;102803.27;130306;1268;97986;-70
2022/03/18 10:37:15;;;;;;;10.70;7.40;;;;;;;6.24;39.02;102797.29;130352;1270;97964;-72
2022/03/18 10:40:35;;;;;;;11.00;7.50;;;;;;;6.31;38.82;102791.73;130439;1267;98730;-73
2022/03/18 10:43:56;;;;;;;9.90;6.30;;;;;;;6.36;39.08;102792.55;130558;1267;98152;-72
2022/03/18 10:47:02;;;;;;;11.80;7.40;;;;;;;6.45;38.74;102792.73;130567;1267;99245;-73
2022/03/18 10:50:24;;;;;;;11.30;7.90;;;;;;;6.50;38.07;102795.89;130356;1268;98021;-72
2022/03/18 10:53:30;;;;;;;11.30;7.20;;;;;;;6.54;38.85;102794.30;130339;1270;99038;-75
2022/03/18 10:56:57;;;;;;;12.20;7.20;;;;;;;6.56;38.55;102792.08;130286;1268;99047;-74
2022/03/18 11:00:02;;;;;;;10.40;6.90;;;;;;;6.62;37.66;102787.21;130281;1270;97986;-70
2022/03/18 11:03:08;;;;;;;9.10;6.40;;;;;;;6.66;37.39;102791.13;130424;1266;97957;-72
2022/03/18 11:06:14;;;;;;;9.00;6.80;;;;;;;6.70;38.23;102789.72;130479;1267;99168;-73
2022/03/18 11:09:20;;;;;;;10.30;7.00;;;;;;;6.77;38.05;102783.80;130485;1267;99161;-72
2022/03/18 11:12:27;;;;;;;9.60;6.80;;;;;;;6.84;37.87;102780.65;130455;1267;97993;-72
2022/03/18 11:15:36;;;;;;;12.30;7.20;;;;;;;6.89;37.39;102783.63;130681;1267;98747;-71
2022/03/18 11:18:45;;;;;;;11.40;7.00;;;;;;;6.89;36.99;102777.77;130805;1267;99187;-72
2022/03/18 11:21:51;;;;;;;12.40;8.20;;;;;;;6.92;37.77;102780.31;130711;1267;97995;-73
2022/03/18 11:25:00;;;;;;;12.40;7.90;;;;;;;6.94;37.71;102780.56;130559;1267;99250;-74
2022/03/18 11:28:06;;;;;;;11.60;7.40;;;;;;;6.97;37.44;102775.10;130440;1267;99150;-72
2022/03/18 11:31:17;;;;;;;12.00;7.20;;;;;;;6.99;37.36;102774.52;130624;1267;98634;-72
2022/03/18 11:34:23;;;;;;;11.60;7.40;;;;;;;7.00;38.02;102775.14;130487;1267;98070;-71
2022/03/18 11:37:30;;;;;;;13.10;7.30;;;;;;;7.03;37.14;102776.80;130520;1267;97965;-71
2022/03/18 11:40:35;;;;;;;14.10;7.90;;;;;;;7.03;37.07;102768.48;130548;1267;99145;-71
2022/03/18 11:43:52;;;;;;;9.10;6.70;;;;;;;7.10;36.90;102770.33;130494;1267;98399;-71
2022/03/18 11:46:57;;;;;;;12.70;7.50;;;;;;;7.13;36.51;102775.10;130556;1267;99075;-71
2022/03/18 11:50:23;;;;;;;12.20;7.20;;;;;;;7.15;36.84;102772.70;130570;1267;97988;-72
2022/03/18 11:53:53;;;;;;;12.10;7.60;;;;;;;7.22;36.63;102772.96;130426;1267;97975;-72
2022/03/18 11:56:58;;;;;;;15.70;8.10;;;;;;;7.23;36.97;102772.89;130370;1267;187243;-72
2022/03/18 12:00:06;;;;;;;13.40;7.00;;;;;;;7.26;36.39;102773.66;130539;1267;97963;-73
2022/03/18 12:03:21;;;;;;;11.00;7.20;;;;;;;7.26;36.61;102781.27;130502;1267;99281;-73
2022/03/18 12:06:29;;;;;;;12.70;8.20;;;;;;;7.28;36.81;102775.86;130678;1267;98037;-72
2022/03/18 12:09:50;;;;;;;14.50;8.00;;;;;;;7.30;36.82;102775.91;130576;1268;98005;-75
2022/03/18 12:12:55;;;;;;;10.50;7.30;;;;;;;7.35;36.77;102771.98;130359;1267;98774;-73
2022/03/18 12:16:01;;;;;;;9.80;7.10;;;;;;;7.37;37.15;102768.18;130738;1267;99197;-74
2022/03/18 12:19:13;;;;;;;12.20;7.80;;;;;;;7.42;36.69;102768.45;130533;1267;99198;-72
2022/03/18 12:22:20;;;;;;;10.80;7.30;;;;;;;7.46;36.72;102761.92;130572;1267;99210;-72
2022/03/18 12:25:26;;;;;;;14.30;9.00;;;;;;;7.53;37.07;102754.55;130605;1267;97990;-72
2022/03/18 12:28:46;;;;;;;12.30;8.40;;;;;;;7.58;36.31;102751.31;130653;1266;98617;-72
2022/03/18 12:31:51;;;;;;;11.30;7.50;;;;;;;7.60;36.27;102753.33;130416;1267;97972;-72
2022/03/18 12:35:01;;;;;;;13.90;7.80;;;;;;;7.61;36.08;102754.69;130425;1267;98310;-74
2022/03/18 12:38:08;;;;;;;12.90;7.60;;;;;;;7.64;36.34;102757.71;130421;1268;98001;-74
2022/03/18 12:41:19;;;;;;;13.80;8.50;;;;;;;7.70;36.36;102755.33;130600;1267;97971;-75
2022/03/18 12:44:34;;;;;;;14.00;9.40;;;;;;;7.73;35.24;102757.28;130665;1267;97985;-74
2022/03/18 12:47:39;;;;;;;15.70;9.00;;;;;;;7.73;35.91;102755.36;130430;1267;97953;-74
2022/03/18 12:50:47;;;;;;;12.30;7.70;;;;;;;7.68;35.67;102750.43;130448;1267;98790;-76
2022/03/18 12:53:52;;;;;;;15.50;8.70;;;;;;;7.69;35.38;102745.79;130482;1267;98194;-74
2022/03/18 12:57:12;;;;;;;13.30;8.70;;;;;;;7.73;35.44;102752.88;130603;1266;98679;-75
2022/03/18 13:00:18;;;;;;;10.40;7.50;;;;;;;7.75;35.75;102754.73;130487;1267;97966;-73
2022/03/18 13:03:25;;;;;;;10.90;7.10;;;;;;;7.77;34.97;102755.36;130397;1267;97957;-75
2022/03/18 13:06:31;;;;;;;12.90;8.10;;;;;;;7.73;34.67;102753.05;130521;1267;97941;-74
2022/03/18 13:09:49;;;;;;;12.20;7.80;;;;;;;7.69;34.96;102750.23;130433;1268;98034;-74
2022/03/18 13:13:05;;;;;;;17.40;8.40;;;;;;;7.68;35.48;102742.84;130473;1268;99081;-75
2022/03/18 13:16:11;;;;;;;10.60;7.50;;;;;;;7.70;35.30;102740.25;130405;1269;99153;-73
2022/03/18 13:19:17;;;;;;;12.80;7.10;;;;;;;7.72;35.37;102741.92;130458;1268;97958;-75
2022/03/18 13:22:23;;;;;;;11.40;7.40;;;;;;;7.75;35.06;102738.77;130388;1268;98048;-74
2022/03/18 13:25:29;;;;;;;11.70;6.90;;;;;;;7.78;35.23;102740.04;130435;1268;97998;-75
2022/03/18 13:28:35;;;;;;;10.50;7.30;;;;;;;7.83;35.24;102743.52;130408;1268;98106;-74
2022/03/18 13:35:15;;;;;;;16.40;9.30;;;;;;;7.88;34.98;102749.69;130387;1268;98056;-73
2022/03/18 13:38:21;;;;;;;17.50;11.30;;;;;;;7.88;34.77;102747.20;130394;1269;98645;-73
2022/03/18 13:41:42;;;;;;;15.70;10.40;;;;;;;7.88;35.10;102744.73;130357;1268;98673;-73
2022/03/18 13:44:49;;;;;;;11.90;8.20;;;;;;;7.88;35.22;102735.86;130358;1269;98050;-72
2022/03/18 13:47:55;;;;;;;16.60;12.70;;;;;;;7.91;34.60;102738.56;130545;1267;98058;-72
2022/03/18 13:51:00;;;;;;;12.60;8.10;;;;;;;7.91;34.47;102741.03;130392;1267;99087;-72
2022/03/18 13:54:10;;;;;;;12.70;8.50;;;;;;;7.91;34.58;102733.23;130498;1267;98046;-72
2022/03/18 13:57:16;;;;;;;21.10;10.80;;;;;;;7.92;34.84;102729.27;130462;1267;98076;-71
2022/03/18 14:00:29;;;;;;;11.60;7.90;;;;;;;7.92;34.67;102729.63;130412;1267;97960;-72
2022/03/18 14:03:35;;;;;;;11.20;8.10;;;;;;;7.92;34.42;102729.82;130592;1267;98561;-73
2022/03/18 14:06:59;;;;;;;12.30;7.70;;;;;;;7.90;34.23;102729.05;131038;1267;97967;-74
2022/03/18 14:10:07;;;;;;;14.30;8.20;;;;;;;7.91;34.77;102724.54;130398;1268;97956;-75
2022/03/18 14:13:14;;;;;;;10.90;7.30;;;;;;;7.92;34.38;102724.50;130480;1268;99198;-74
2022/03/18 14:16:21;;;;;;;10.90;8.10;;;;;;;7.92;34.49;102725.41;130524;1270;97970;-75
2022/03/18 14:19:48;;;;;;;13.20;7.30;;;;;;;7.92;34.57;102726.43;130586;1270;98559;-73
2022/03/18 14:22:54;;;;;;;13.20;8.70;;;;;;;7.93;34.25;102727.98;130339;1270;97982;-74
2022/03/18 14:26:05;;;;;;;13.00;9.00;;;;;;;7.93;34.43;102726.04;130337;1268;97975;-74
2022/03/18 14:29:12;;;;;;;11.50;7.60;;;;;;;7.91;34.14;102723.30;130397;1268;97975;-75
2022/03/18 14:32:18;;;;;;;11.80;7.80;;;;;;;7.89;34.18;102725.73;130370;1268;97971;-74
2022/03/18 14:35:24;;;;;;;15.70;9.10;;;;;;;7.86;34.14;102722.64;130325;1268;97976;-74
2022/03/18 14:38:30;;;;;;;11.60;7.50;;;;;;;7.84;34.12;102717.42;130279;1268;97960;-73
2022/03/18 14:41:35;;;;;;;12.70;8.10;;;;;;;7.83;34.21;102714.82;130381;1267;99168;-73
2022/03/18 14:44:41;;;;;;;10.60;7.30;;;;;;;7.82;34.07;102718.40;130369;1267;99162;-74